Inegol, Turkey
Current Conditions -  °F | °C
As of 12:20 PM on Friday 28 Nov 2014 (Local Time) from LTBR Reporting Station
Clear Clear  
Wind Chill: 45°   Ceiling: Unl
Heat Index: 45°   Visibility: 5mi
Dew Point: 39°   Wind: 1mph
Humidity: 81%   Direction: NA
Pressure: 30.27"   Gusts: NA
Location:  40.08°N, 29.51°E
Report Text: LTBR 280920Z VRB01KT 8000 NSC 07/04 Q1025 NOSIG
Loading
Personal Weather Stations






























Interactive Weather Map New forecast layout! Learn more

10-Day Weather Forecast

Advertisements
Track Severe Weather on mobile